createdAt,value
2017-08-20T00:00:34.966Z,99085.98
2017-08-20T00:03:04.225Z,99090.19
2017-08-20T00:05:33.664Z,99101.34
2017-08-20T00:08:03.119Z,99097.53
2017-08-20T00:10:32.380Z,99089.80
2017-08-20T00:13:01.817Z,99079.88
2017-08-20T00:15:31.254Z,99071.31
2017-08-20T00:18:00.684Z,99074.04
2017-08-20T00:20:30.162Z,99074.58
2017-08-20T00:22:59.620Z,99078.09
2017-08-20T00:25:29.077Z,99072.80
2017-08-20T00:27:58.520Z,99081.66
2017-08-20T00:30:27.985Z,99092.36
2017-08-20T00:32:57.461Z,99102.98
2017-08-20T00:35:26.908Z,99093.72
2017-08-20T00:37:56.367Z,99102.03
2017-08-20T00:40:25.814Z,99107.85
2017-08-20T00:42:55.267Z,99112.88
2017-08-20T00:45:24.709Z,99115.20
2017-08-20T00:47:54.153Z,99121.99
2017-08-20T00:50:23.614Z,99119.53
2017-08-20T00:52:53.061Z,99115.07
2017-08-20T00:55:22.535Z,99109.48
2017-08-20T00:57:51.969Z,99102.03
2017-08-20T01:00:21.508Z,99101.21
2017-08-20T01:02:50.764Z,99100.23
2017-08-20T01:05:20.268Z,99097.11
2017-08-20T01:07:49.716Z,99093.45
2017-08-20T01:10:19.199Z,99093.45
2017-08-20T01:12:48.645Z,99091.28
2017-08-20T01:15:18.164Z,99080.14
2017-08-20T01:17:47.718Z,99069.15
2017-08-20T01:20:17.258Z,99071.99
2017-08-20T01:22:46.715Z,99059.72
2017-08-20T01:25:16.215Z,99061.26
2017-08-20T01:27:45.661Z,99061.52
2017-08-20T01:30:15.194Z,99057.41
2017-08-20T01:32:44.673Z,99063.11
2017-08-20T01:35:14.177Z,99062.70
2017-08-20T01:37:43.645Z,99069.50
2017-08-20T01:40:13.140Z,99071.39
2017-08-20T01:42:42.579Z,99076.16
2017-08-20T01:45:12.064Z,99078.05
2017-08-20T01:47:41.516Z,99079.15
2017-08-20T01:50:11.007Z,99082.80
2017-08-20T01:52:40.475Z,99072.25
2017-08-20T01:55:09.973Z,99068.17
2017-08-20T01:57:39.408Z,99065.59
2017-08-20T02:00:08.900Z,99069.95
2017-08-20T02:02:38.180Z,99064.73
2017-08-20T02:05:07.676Z,99068.69
2017-08-20T02:07:37.123Z,99067.88
2017-08-20T02:10:06.621Z,99065.58
2017-08-20T02:12:35.908Z,99062.83
2017-08-20T02:15:05.393Z,99067.33
2017-08-20T02:17:34.844Z,99067.17
2017-08-20T02:20:04.353Z,99070.84
2017-08-20T02:22:33.817Z,99072.08
2017-08-20T02:25:03.357Z,99073.42
2017-08-20T02:27:32.792Z,99070.69
2017-08-20T02:30:02.299Z,99076.25
2017-08-20T02:32:31.752Z,99072.56
2017-08-20T02:35:01.228Z,99067.81
2017-08-20T02:37:30.685Z,99072.14
2017-08-20T02:40:00.140Z,99069.55
2017-08-20T02:42:29.599Z,99062.87
2017-08-20T02:44:59.052Z,99062.18
2017-08-20T02:47:28.508Z,99054.86
2017-08-20T02:49:57.956Z,99050.35
2017-08-20T02:52:27.421Z,99052.81
2017-08-20T02:54:56.887Z,99058.78
2017-08-20T02:57:26.344Z,99053.89
2017-08-20T02:59:56.104Z,99060.39
2017-08-20T03:02:25.705Z,99048.74
2017-08-20T03:04:55.153Z,99053.34
2017-08-20T03:07:24.620Z,99052.12
2017-08-20T03:09:54.081Z,99053.89
2017-08-20T03:12:23.572Z,99055.78
2017-08-20T03:14:53.321Z,99061.72
2017-08-20T03:17:23.081Z,99067.14
2017-08-20T03:19:52.532Z,99071.59
2017-08-20T03:22:21.997Z,99071.44
2017-08-20T03:24:51.560Z,99066.80
2017-08-20T03:27:21.026Z,99067.98
2017-08-20T03:29:50.788Z,99060.92
2017-08-20T03:32:20.536Z,99059.81
2017-08-20T03:34:50.288Z,99060.22
2017-08-20T03:37:19.802Z,99065.48
2017-08-20T03:39:49.545Z,99066.06
2017-08-20T03:42:19.296Z,99067.70
2017-08-20T03:44:49.068Z,99068.23
2017-08-20T03:47:18.555Z,99074.48
2017-08-20T03:49:48.345Z,99077.35
2017-08-20T03:52:18.110Z,99075.14
2017-08-20T03:54:47.860Z,99073.50
2017-08-20T03:57:17.628Z,99075.42
2017-08-20T03:59:47.381Z,99076.09
2017-08-20T04:02:17.145Z,99075.67
2017-08-20T04:04:46.897Z,99081.10
2017-08-20T04:07:16.647Z,99086.97
2017-08-20T04:09:46.122Z,99090.92
2017-08-20T04:12:15.891Z,99097.86
2017-08-20T04:14:45.632Z,99100.20
2017-08-20T04:17:15.569Z,99103.61
2017-08-20T04:19:45.320Z,99104.18
2017-08-20T04:22:15.068Z,99110.59
2017-08-20T04:24:44.544Z,99112.52
2017-08-20T04:27:14.016Z,99109.02
2017-08-20T04:29:43.473Z,99111.88
2017-08-20T04:32:13.209Z,99112.72
2017-08-20T04:34:42.683Z,99115.19
2017-08-20T04:37:12.121Z,99122.56
2017-08-20T04:39:41.579Z,99120.78
2017-08-20T04:42:11.059Z,99122.42
2017-08-20T04:44:40.547Z,99122.73
2017-08-20T04:47:10.012Z,99131.69
2017-08-20T04:49:39.476Z,99137.02
2017-08-20T04:52:08.935Z,99140.03
2017-08-20T04:54:39.237Z,99142.64
2017-08-20T04:57:08.789Z,99146.16
2017-08-20T04:59:38.236Z,99148.91
2017-08-20T05:02:07.694Z,99151.74
2017-08-20T05:04:37.173Z,99143.35
2017-08-20T05:07:06.644Z,99138.59
2017-08-20T05:09:36.146Z,99135.86
2017-08-20T05:12:05.596Z,99138.84
2017-08-20T05:14:35.050Z,99136.80
2017-08-20T05:17:04.504Z,99145.48
2017-08-20T05:19:33.958Z,99146.81
2017-08-20T05:22:03.425Z,99149.67
2017-08-20T05:24:32.888Z,99145.67
2017-08-20T05:27:02.335Z,99147.24
2017-08-20T05:29:32.052Z,99144.33
2017-08-20T05:32:01.501Z,99149.59
2017-08-20T05:34:30.953Z,99150.66
2017-08-20T05:37:00.429Z,99147.87
2017-08-20T05:39:29.871Z,99148.73
2017-08-20T05:41:59.319Z,99147.37
2017-08-20T05:44:28.777Z,99155.37
2017-08-20T05:46:58.722Z,99157.80
2017-08-20T05:49:28.170Z,99153.16
2017-08-20T05:51:57.625Z,99152.98
2017-08-20T05:54:27.084Z,99160.16
2017-08-20T05:56:56.549Z,99152.44
2017-08-20T05:59:25.997Z,99147.99
2017-08-20T06:01:55.452Z,99150.30
2017-08-20T06:04:24.905Z,99153.52
2017-08-20T06:06:54.360Z,99148.99
2017-08-20T06:09:23.639Z,99158.27
2017-08-20T06:11:53.113Z,99160.89
2017-08-20T06:14:22.745Z,99162.66
2017-08-20T06:16:52.200Z,99168.47
2017-08-20T06:19:21.684Z,99175.28
2017-08-20T06:21:51.123Z,99174.33
2017-08-20T06:24:20.573Z,99170.70
2017-08-20T06:26:50.037Z,99175.00
2017-08-20T06:29:19.508Z,99179.02
2017-08-20T06:31:48.990Z,99177.73
2017-08-20T06:34:18.446Z,99177.38
2017-08-20T06:36:47.904Z,99182.23
2017-08-20T06:39:17.362Z,99181.73
2017-08-20T06:41:46.835Z,99183.22
2017-08-20T06:44:16.263Z,99187.59
2017-08-20T06:46:45.735Z,99192.39
2017-08-20T06:49:15.193Z,99190.82
2017-08-20T06:51:44.653Z,99196.08
2017-08-20T06:54:14.097Z,99198.15
2017-08-20T06:56:43.556Z,99193.65
2017-08-20T06:59:13.001Z,99197.49
2017-08-20T07:01:42.472Z,99196.88
2017-08-20T07:04:11.926Z,99195.73
2017-08-20T07:06:41.373Z,99202.38
2017-08-20T07:09:10.874Z,99203.95
2017-08-20T07:11:40.318Z,99212.00
2017-08-20T07:14:09.756Z,99208.84
2017-08-20T07:16:40.187Z,99220.62
2017-08-20T07:19:09.630Z,99219.70
2017-08-20T07:21:40.658Z,99226.63
2017-08-20T07:24:10.095Z,99222.59
2017-08-20T07:26:39.559Z,99235.19
2017-08-20T07:29:09.008Z,99241.70
2017-08-20T07:31:38.465Z,99241.84
2017-08-20T07:34:07.905Z,99242.03
2017-08-20T07:36:37.357Z,99232.20
2017-08-20T07:39:06.789Z,99244.59
2017-08-20T07:41:36.241Z,99236.64
2017-08-20T07:44:05.708Z,99237.60
2017-08-20T07:46:35.152Z,99236.70
2017-08-20T07:49:04.610Z,99237.94
2017-08-20T07:51:34.084Z,99231.80
2017-08-20T07:54:03.610Z,99235.13
2017-08-20T07:56:33.056Z,99241.02
2017-08-20T07:59:02.525Z,99240.70
2017-08-20T08:01:31.997Z,99245.95
2017-08-20T08:04:01.429Z,99244.97
2017-08-20T08:06:30.872Z,99249.88
2017-08-20T08:09:00.338Z,99247.57
2017-08-20T08:11:29.789Z,99253.86
2017-08-20T08:13:59.253Z,99252.00
2017-08-20T08:16:28.692Z,99246.27
2017-08-20T08:18:58.136Z,99252.52
2017-08-20T08:21:27.584Z,99247.59
2017-08-20T08:23:57.038Z,99243.21
2017-08-20T08:26:26.504Z,99244.70
2017-08-20T08:28:55.974Z,99261.56
2017-08-20T08:31:25.432Z,99257.70
2017-08-20T08:33:54.894Z,99250.86
2017-08-20T08:36:24.337Z,99254.27
2017-08-20T08:38:53.822Z,99253.09
2017-08-20T08:41:23.261Z,99261.39
2017-08-20T08:43:52.710Z,99252.79
2017-08-20T08:46:22.163Z,99258.70
2017-08-20T08:48:51.612Z,99263.63
2017-08-20T08:51:21.054Z,99252.88
2017-08-20T08:53:50.498Z,99261.31
2017-08-20T08:56:19.938Z,99257.47
2017-08-20T08:58:49.390Z,99260.63
2017-08-20T09:01:18.824Z,99261.41
2017-08-20T09:03:48.256Z,99259.75
2017-08-20T09:06:17.705Z,99253.32
2017-08-20T09:08:47.138Z,99259.23
2017-08-20T09:11:16.572Z,99270.59
2017-08-20T09:13:45.887Z,99266.66
2017-08-20T09:16:15.321Z,99259.45
2017-08-20T09:18:44.768Z,99264.80
2017-08-20T09:21:14.244Z,99264.25
2017-08-20T09:23:43.328Z,99266.07
2017-08-20T09:26:12.781Z,99265.25
2017-08-20T09:28:42.233Z,99267.31
2017-08-20T09:31:11.664Z,99267.42
2017-08-20T09:33:41.115Z,99258.88
2017-08-20T09:36:10.573Z,99266.24
2017-08-20T09:38:40.036Z,99266.31
2017-08-20T09:41:09.479Z,99263.05
2017-08-20T09:43:38.920Z,99260.94
2017-08-20T09:46:08.368Z,99271.33
2017-08-20T09:48:37.944Z,99274.96
2017-08-20T09:51:07.363Z,99268.25
2017-08-20T09:53:36.817Z,99272.08
2017-08-20T09:56:06.262Z,99258.05
2017-08-20T09:58:35.764Z,99273.18
2017-08-20T10:01:05.211Z,99262.26
2017-08-20T10:03:34.653Z,99256.38
2017-08-20T10:06:04.106Z,99249.08
2017-08-20T10:08:33.576Z,99251.17
2017-08-20T10:11:03.012Z,99252.11
2017-08-20T10:13:32.477Z,99242.71
2017-08-20T10:16:01.922Z,99252.16
2017-08-20T10:18:31.386Z,99242.78
2017-08-20T10:21:00.849Z,99239.19
2017-08-20T10:23:30.336Z,99238.53
2017-08-20T10:25:59.793Z,99234.86
2017-08-20T10:28:29.253Z,99234.25
2017-08-20T10:30:58.701Z,99232.74
2017-08-20T10:33:28.168Z,99229.34
2017-08-20T10:35:57.617Z,99223.11
2017-08-20T10:38:27.056Z,99217.35
2017-08-20T10:40:56.490Z,99218.69
2017-08-20T10:43:25.931Z,99226.06
2017-08-20T10:45:55.375Z,99210.06
2017-08-20T10:48:24.826Z,99222.56
2017-08-20T10:50:54.264Z,99218.19
2017-08-20T10:53:23.704Z,99221.72
2017-08-20T10:55:53.183Z,99215.66
2017-08-20T10:58:22.652Z,99222.16
2017-08-20T11:00:52.098Z,99215.26
2017-08-20T11:03:21.549Z,99207.59
2017-08-20T11:05:50.988Z,99212.15
2017-08-20T11:08:20.429Z,99213.77
2017-08-20T11:10:49.860Z,99222.95
2017-08-20T11:13:19.315Z,99205.44
2017-08-20T11:15:48.748Z,99210.37
2017-08-20T11:18:18.176Z,99204.27
2017-08-20T11:20:47.613Z,99208.17
2017-08-20T11:23:17.065Z,99207.46
2017-08-20T11:25:46.500Z,99227.55
2017-08-20T11:28:15.959Z,99221.04
2017-08-20T11:30:45.404Z,99207.87
2017-08-20T11:33:14.845Z,99214.67
2017-08-20T11:35:44.313Z,99220.94
2017-08-20T11:38:13.739Z,99225.67
2017-08-20T11:40:43.184Z,99229.38
2017-08-20T11:43:12.652Z,99223.42
2017-08-20T11:45:42.129Z,99210.83
2017-08-20T11:48:11.557Z,99217.16
2017-08-20T11:50:41.006Z,99229.23
2017-08-20T11:53:10.448Z,99229.63
2017-08-20T11:55:39.901Z,99225.40
2017-08-20T11:58:09.341Z,99237.13
2017-08-20T12:00:38.817Z,99227.06
2017-08-20T12:03:08.234Z,99229.55
2017-08-20T12:05:37.690Z,99228.59
2017-08-20T12:08:07.141Z,99249.97
2017-08-20T12:10:36.582Z,99241.20
2017-08-20T12:13:06.035Z,99243.16
2017-08-20T12:15:35.465Z,99242.81
2017-08-20T12:18:04.909Z,99236.24
2017-08-20T12:20:34.348Z,99238.99
2017-08-20T12:23:03.614Z,99235.27
2017-08-20T12:25:33.052Z,99248.57
2017-08-20T12:28:02.488Z,99250.34
2017-08-20T12:30:31.962Z,99247.96
2017-08-20T12:33:01.399Z,99244.32
2017-08-20T12:35:30.844Z,99246.15
2017-08-20T12:38:00.297Z,99245.20
2017-08-20T12:40:29.745Z,99239.76
2017-08-20T12:42:59.200Z,99239.48
2017-08-20T12:45:28.648Z,99244.52
2017-08-20T12:47:58.096Z,99237.64
2017-08-20T12:50:27.536Z,99232.56
2017-08-20T12:52:57.009Z,99237.14
2017-08-20T12:55:26.440Z,99227.34
2017-08-20T12:57:55.885Z,99239.22
2017-08-20T13:00:25.322Z,99240.45
2017-08-20T13:02:55.641Z,99232.61
2017-08-20T13:05:25.077Z,99228.66
2017-08-20T13:07:54.517Z,99232.77
2017-08-20T13:10:24.031Z,99230.91
2017-08-20T13:12:53.494Z,99231.69
2017-08-20T13:15:22.961Z,99240.70
2017-08-20T13:17:52.399Z,99234.95
2017-08-20T13:20:21.884Z,99236.42
2017-08-20T13:22:51.357Z,99227.14
2017-08-20T13:25:20.847Z,99224.63
2017-08-20T13:27:50.284Z,99225.87
2017-08-20T13:30:19.760Z,99213.93
2017-08-20T13:32:49.215Z,99220.23
2017-08-20T13:35:18.744Z,99223.90
2017-08-20T13:37:48.170Z,99222.54
2017-08-20T13:40:17.677Z,99216.56
2017-08-20T13:42:47.120Z,99218.19
2017-08-20T13:45:16.730Z,99214.02
2017-08-20T13:47:46.223Z,99219.23
2017-08-20T13:50:15.917Z,99216.33
2017-08-20T13:52:45.342Z,99206.53
2017-08-20T13:55:14.843Z,99216.48
2017-08-20T13:57:44.273Z,99217.31
2017-08-20T14:00:13.781Z,99202.10
2017-08-20T14:02:43.221Z,99212.41
2017-08-20T14:05:12.695Z,99212.84
2017-08-20T14:07:42.130Z,99211.42
2017-08-20T14:10:11.605Z,99211.80
2017-08-20T14:12:41.070Z,99210.45
2017-08-20T14:15:10.590Z,99199.33
2017-08-20T14:17:40.057Z,99201.77
2017-08-20T14:20:09.537Z,99207.92
2017-08-20T14:22:38.957Z,99203.97
2017-08-20T14:25:08.426Z,99210.61
2017-08-20T14:27:37.910Z,99213.49
2017-08-20T14:30:07.389Z,99214.88
2017-08-20T14:32:36.837Z,99213.23
2017-08-20T14:35:06.363Z,99211.05
2017-08-20T14:37:35.611Z,99206.16
2017-08-20T14:40:05.124Z,99197.72
2017-08-20T14:42:34.586Z,99197.92
2017-08-20T14:45:04.061Z,99193.20
2017-08-20T14:47:33.503Z,99199.91
2017-08-20T14:50:03.002Z,99199.66
2017-08-20T14:52:32.458Z,99196.98
2017-08-20T14:55:01.973Z,99198.17
2017-08-20T14:57:31.403Z,99203.38
2017-08-20T15:00:00.858Z,99197.92
2017-08-20T15:02:30.145Z,99202.19
2017-08-20T15:04:59.634Z,99203.20
2017-08-20T15:07:29.072Z,99203.50
2017-08-20T15:09:58.517Z,99210.71
2017-08-20T15:12:27.955Z,99206.65
2017-08-20T15:14:57.397Z,99213.32
2017-08-20T15:17:26.864Z,99236.78
2017-08-20T15:19:56.334Z,99218.34
2017-08-20T15:22:25.810Z,99215.76
2017-08-20T15:24:55.275Z,99226.05
2017-08-20T15:27:24.737Z,99220.09
2017-08-20T15:29:54.165Z,99222.12
2017-08-20T15:32:23.851Z,99215.36
2017-08-20T15:34:53.295Z,99221.27
2017-08-20T15:37:22.753Z,99225.63
2017-08-20T15:39:52.199Z,99218.13
2017-08-20T15:42:21.647Z,99220.73
2017-08-20T15:44:51.083Z,99214.98
2017-08-20T15:47:20.534Z,99222.63
2017-08-20T15:49:50.009Z,99213.27
2017-08-20T15:52:19.452Z,99212.25
2017-08-20T15:54:48.924Z,99215.02
2017-08-20T15:57:18.386Z,99215.66
2017-08-20T15:59:47.841Z,99211.31
2017-08-20T16:02:17.285Z,99215.23
2017-08-20T16:04:46.774Z,99207.70
2017-08-20T16:07:16.291Z,99219.91
2017-08-20T16:09:45.749Z,99208.79
2017-08-20T16:12:15.213Z,99208.83
2017-08-20T16:14:44.648Z,99210.95
2017-08-20T16:17:14.092Z,99220.00
2017-08-20T16:19:43.542Z,99206.62
2017-08-20T16:22:12.989Z,99206.80
2017-08-20T16:24:42.446Z,99210.23
2017-08-20T16:27:11.895Z,99217.97
2017-08-20T16:29:41.348Z,99218.70
2017-08-20T16:32:10.625Z,99221.48
2017-08-20T16:34:40.070Z,99222.90
2017-08-20T16:37:09.526Z,99219.09
2017-08-20T16:39:38.960Z,99225.30
2017-08-20T16:42:08.420Z,99226.11
2017-08-20T16:44:37.867Z,99221.55
2017-08-20T16:47:07.297Z,99217.51
2017-08-20T16:49:36.746Z,99227.72
2017-08-20T16:52:06.209Z,99221.70
2017-08-20T16:54:35.668Z,99220.05
2017-08-20T16:57:05.113Z,99227.08
2017-08-20T16:59:34.564Z,99232.25
2017-08-20T17:02:04.011Z,99234.30
2017-08-20T17:04:33.472Z,99231.13
2017-08-20T17:07:02.916Z,99234.42
2017-08-20T17:09:32.369Z,99230.77
2017-08-20T17:12:01.823Z,99238.98
2017-08-20T17:14:31.264Z,99242.83
2017-08-20T17:17:01.161Z,99240.24
2017-08-20T17:19:30.607Z,99250.08
2017-08-20T17:22:00.112Z,99248.04
2017-08-20T17:24:29.784Z,99245.75
2017-08-20T17:26:59.234Z,99248.91
2017-08-20T17:29:28.674Z,99249.30
2017-08-20T17:31:58.118Z,99251.53
2017-08-20T17:34:27.553Z,99255.15
2017-08-20T17:36:56.991Z,99251.64
2017-08-20T17:39:26.448Z,99251.20
2017-08-20T17:41:55.897Z,99248.94
2017-08-20T17:44:25.354Z,99251.08
2017-08-20T17:46:54.798Z,99249.09
2017-08-20T17:49:24.247Z,99253.11
2017-08-20T17:51:53.681Z,99254.34
2017-08-20T17:54:23.127Z,99254.05
2017-08-20T17:56:52.580Z,99268.01
2017-08-20T17:59:21.849Z,99267.38
2017-08-20T18:01:51.417Z,99265.62
2017-08-20T18:04:20.733Z,99268.52
2017-08-20T18:06:50.185Z,99274.34
2017-08-20T18:09:19.617Z,99272.49
2017-08-20T18:11:49.052Z,99276.53
2017-08-20T18:14:18.513Z,99274.59
2017-08-20T18:16:47.954Z,99271.69
2017-08-20T18:19:17.418Z,99280.86
2017-08-20T18:21:46.858Z,99273.42
2017-08-20T18:24:16.301Z,99277.39
2017-08-20T18:26:45.740Z,99270.23
2017-08-20T18:29:15.197Z,99273.38
2017-08-20T18:31:44.642Z,99274.89
2017-08-20T18:34:14.091Z,99275.71
2017-08-20T18:36:43.530Z,99283.97
2017-08-20T18:39:12.982Z,99284.89
2017-08-20T18:41:42.433Z,99288.16
2017-08-20T18:44:11.673Z,99288.94
2017-08-20T18:46:41.129Z,99298.70
2017-08-20T18:49:10.583Z,99297.16
2017-08-20T18:51:40.021Z,99299.28
2017-08-20T18:54:09.497Z,99304.21
2017-08-20T18:56:38.935Z,99306.06
2017-08-20T18:59:08.445Z,99307.75
2017-08-20T19:01:37.889Z,99313.54
2017-08-20T19:04:07.340Z,99306.25
2017-08-20T19:06:36.797Z,99308.91
2017-08-20T19:09:06.257Z,99308.56
2017-08-20T19:11:35.687Z,99310.81
2017-08-20T19:14:05.432Z,99310.16
2017-08-20T19:16:35.154Z,99305.07
2017-08-20T19:19:04.903Z,99311.44
2017-08-20T19:21:34.678Z,99305.36
2017-08-20T19:24:04.422Z,99300.11
2017-08-20T19:26:34.170Z,99297.63
2017-08-20T19:29:03.909Z,99307.71
2017-08-20T19:31:33.645Z,99303.66
2017-08-20T19:34:03.380Z,99306.13
2017-08-20T19:36:33.132Z,99309.55
2017-08-20T19:39:02.861Z,99308.34
2017-08-20T19:41:32.588Z,99312.47
2017-08-20T19:44:02.337Z,99325.56
2017-08-20T19:46:32.103Z,99322.20
2017-08-20T19:49:01.821Z,99322.64
2017-08-20T19:51:31.568Z,99321.44
2017-08-20T19:54:01.303Z,99321.17
2017-08-20T19:56:31.037Z,99318.53
2017-08-20T19:59:00.771Z,99321.14
2017-08-20T20:01:30.517Z,99318.45
2017-08-20T20:04:00.260Z,99312.41
2017-08-20T20:06:30.036Z,99315.22
2017-08-20T20:08:59.871Z,99324.59
2017-08-20T20:11:29.577Z,99322.92
2017-08-20T20:13:59.294Z,99319.72
2017-08-20T20:16:29.042Z,99322.93
2017-08-20T20:18:58.778Z,99320.16
2017-08-20T20:21:28.509Z,99324.17
2017-08-20T20:23:58.251Z,99328.86
2017-08-20T20:26:27.992Z,99332.97
2017-08-20T20:28:57.739Z,99334.77
2017-08-20T20:31:27.472Z,99338.33
2017-08-20T20:33:57.206Z,99331.92
2017-08-20T20:36:26.958Z,99332.21
2017-08-20T20:38:56.777Z,99332.56
2017-08-20T20:41:26.509Z,99337.77
2017-08-20T20:43:57.081Z,99334.32
2017-08-20T20:46:26.818Z,99333.77
2017-08-20T20:48:56.556Z,99336.84
2017-08-20T20:51:26.277Z,99336.02
2017-08-20T20:53:56.009Z,99340.28
2017-08-20T20:56:26.673Z,99340.16
2017-08-20T20:58:56.433Z,99345.52
2017-08-20T21:01:26.144Z,99341.72
2017-08-20T21:03:55.879Z,99340.22
2017-08-20T21:06:25.605Z,99338.87
2017-08-20T21:08:55.355Z,99344.89
2017-08-20T21:11:25.080Z,99349.20
2017-08-20T21:13:54.804Z,99349.70
2017-08-20T21:16:24.547Z,99350.91
2017-08-20T21:18:54.264Z,99347.13
2017-08-20T21:21:24.008Z,99354.16
2017-08-20T21:23:53.744Z,99358.40
2017-08-20T21:26:23.484Z,99355.19
2017-08-20T21:28:53.229Z,99354.33
2017-08-20T21:31:22.948Z,99350.98
2017-08-20T21:33:52.693Z,99354.83
2017-08-20T21:36:22.422Z,99351.79
2017-08-20T21:38:52.144Z,99351.34
2017-08-20T21:41:21.893Z,99352.47
2017-08-20T21:43:51.625Z,99358.59
2017-08-20T21:46:21.369Z,99355.29
2017-08-20T21:48:51.137Z,99358.59
2017-08-20T21:51:20.854Z,99359.98
2017-08-20T21:53:50.586Z,99351.84
2017-08-20T21:56:20.316Z,99356.61
2017-08-20T21:58:49.872Z,99356.80
2017-08-20T22:01:19.596Z,99353.64
2017-08-20T22:03:49.322Z,99356.94
2017-08-20T22:06:19.050Z,99356.42
2017-08-20T22:08:48.793Z,99350.79
2017-08-20T22:11:18.533Z,99352.32
2017-08-20T22:13:48.262Z,99355.70
2017-08-20T22:16:18.011Z,99353.07
2017-08-20T22:18:47.756Z,99360.72
2017-08-20T22:21:17.505Z,99355.80
2017-08-20T22:23:47.243Z,99354.26
2017-08-20T22:26:16.981Z,99355.05
2017-08-20T22:28:46.713Z,99354.67
2017-08-20T22:31:16.438Z,99355.61
2017-08-20T22:33:46.182Z,99357.28
2017-08-20T22:36:15.938Z,99360.69
2017-08-20T22:38:45.668Z,99357.99
2017-08-20T22:41:15.392Z,99367.92
2017-08-20T22:43:45.116Z,99366.27
2017-08-20T22:46:14.833Z,99362.45
2017-08-20T22:48:44.642Z,99364.46
2017-08-20T22:51:14.384Z,99366.38
2017-08-20T22:53:44.108Z,99367.27
2017-08-20T22:56:13.849Z,99362.35
2017-08-20T22:58:43.577Z,99356.47
2017-08-20T23:01:13.301Z,99365.23
2017-08-20T23:03:43.050Z,99366.75
2017-08-20T23:06:12.791Z,99367.76
2017-08-20T23:08:42.537Z,99361.64
2017-08-20T23:11:12.281Z,99362.63
2017-08-20T23:13:42.006Z,99361.76
2017-08-20T23:16:11.756Z,99365.91
2017-08-20T23:18:41.475Z,99367.34
2017-08-20T23:21:11.208Z,99366.75
2017-08-20T23:23:40.940Z,99354.25
2017-08-20T23:26:10.679Z,99352.20
2017-08-20T23:28:40.418Z,99348.49
2017-08-20T23:31:10.145Z,99342.09
2017-08-20T23:33:39.936Z,99337.92
2017-08-20T23:36:09.669Z,99338.45
2017-08-20T23:38:39.454Z,99335.87
2017-08-20T23:41:09.240Z,99340.03
2017-08-20T23:43:38.979Z,99337.88
2017-08-20T23:46:08.738Z,99336.05
2017-08-20T23:48:38.446Z,99348.29
2017-08-20T23:51:08.177Z,99339.73
2017-08-20T23:53:37.897Z,99335.73
2017-08-20T23:56:07.621Z,99344.55
2017-08-20T23:58:37.352Z,99348.81
